createdAt,value
2022-08-30T00:01:38.233Z,27.15
2022-08-30T00:04:12.302Z,27.08
2022-08-30T00:06:46.182Z,27.03
2022-08-30T00:09:21.753Z,27.00
2022-08-30T00:11:55.712Z,26.97
2022-08-30T00:14:31.919Z,26.94
2022-08-30T00:17:02.854Z,26.92
2022-08-30T00:19:36.670Z,26.92
2022-08-30T00:22:10.572Z,26.87
2022-08-30T00:24:43.595Z,26.85
2022-08-30T00:27:20.299Z,26.85
2022-08-30T00:29:53.763Z,26.87
2022-08-30T00:32:27.544Z,26.89
2022-08-30T00:34:59.645Z,26.86
2022-08-30T00:37:32.345Z,26.76
2022-08-30T00:40:05.864Z,26.73
2022-08-30T00:42:37.101Z,26.75
2022-08-30T00:45:12.315Z,26.80
2022-08-30T00:47:43.347Z,26.78
2022-08-30T00:50:20.310Z,26.67
2022-08-30T00:52:54.154Z,26.55
2022-08-30T00:55:26.970Z,26.49
2022-08-30T00:58:00.961Z,26.44
2022-08-30T01:00:37.574Z,26.36
2022-08-30T01:03:09.775Z,26.33
2022-08-30T01:05:43.304Z,26.27
2022-08-30T01:08:16.129Z,26.23
2022-08-30T01:10:51.243Z,26.18
2022-08-30T01:13:26.157Z,26.11
2022-08-30T01:16:03.480Z,26.06
2022-08-30T01:18:39.681Z,26.00
2022-08-30T01:21:13.048Z,25.95
2022-08-30T01:23:45.769Z,25.90
2022-08-30T01:26:22.511Z,25.90
2022-08-30T01:28:56.798Z,25.92
2022-08-30T01:31:29.955Z,25.94
2022-08-30T01:34:00.772Z,25.92
2022-08-30T01:36:44.915Z,25.85
2022-08-30T01:39:18.197Z,25.81
2022-08-30T01:41:53.749Z,25.79
2022-08-30T01:44:25.048Z,25.80
2022-08-30T01:46:57.025Z,25.79
2022-08-30T01:49:30.866Z,25.80
2022-08-30T01:52:10.479Z,25.86
2022-08-30T01:54:49.638Z,25.92
2022-08-30T01:57:22.706Z,25.99
2022-08-30T01:59:56.020Z,26.03
2022-08-30T02:02:33.693Z,26.07
2022-08-30T02:05:06.310Z,26.10
2022-08-30T02:07:39.660Z,26.13
2022-08-30T02:10:13.689Z,26.13
2022-08-30T02:12:46.862Z,26.15
2022-08-30T02:15:24.051Z,26.06
2022-08-30T02:18:00.055Z,25.81
2022-08-30T02:20:32.221Z,25.66
2022-08-30T02:23:04.976Z,25.43
2022-08-30T02:25:39.009Z,25.33
2022-08-30T02:28:15.769Z,25.25
2022-08-30T02:30:51.904Z,25.16
2022-08-30T02:33:28.156Z,25.02
2022-08-30T02:35:59.624Z,24.98
2022-08-30T02:38:31.946Z,24.95
2022-08-30T02:41:04.637Z,24.97
2022-08-30T02:43:35.668Z,25.00
2022-08-30T02:46:06.798Z,25.01
2022-08-30T02:48:42.115Z,25.05
2022-08-30T02:51:14.391Z,25.11
2022-08-30T02:53:49.599Z,25.14
2022-08-30T02:56:23.459Z,25.14
2022-08-30T02:58:55.605Z,25.16
2022-08-30T03:01:31.234Z,25.14
2022-08-30T03:04:02.126Z,25.15
2022-08-30T03:06:35.558Z,25.13
2022-08-30T03:09:09.239Z,25.12
2022-08-30T03:11:45.108Z,25.11
2022-08-30T03:14:23.352Z,25.09
2022-08-30T03:16:55.351Z,25.09
2022-08-30T03:19:27.428Z,25.10
2022-08-30T03:22:00.728Z,25.12
2022-08-30T03:24:31.753Z,25.12
2022-08-30T03:27:05.983Z,25.08
2022-08-30T03:29:37.112Z,25.00
2022-08-30T03:32:08.238Z,24.97
2022-08-30T03:34:47.274Z,24.95
2022-08-30T03:37:27.357Z,24.93
2022-08-30T03:39:58.516Z,24.90
2022-08-30T03:42:36.035Z,24.87
2022-08-30T03:45:20.895Z,24.86
2022-08-30T03:47:56.025Z,24.82
2022-08-30T03:50:48.691Z,24.80
2022-08-30T03:53:19.785Z,24.81
2022-08-30T03:55:52.805Z,24.80
2022-08-30T03:58:25.586Z,24.78
2022-08-30T04:00:59.481Z,24.78
2022-08-30T04:03:33.315Z,24.77
2022-08-30T04:06:09.712Z,24.75
2022-08-30T04:08:42.145Z,24.74
2022-08-30T04:11:13.033Z,24.73
2022-08-30T04:13:49.736Z,24.72
2022-08-30T04:16:21.031Z,24.71
2022-08-30T04:18:56.246Z,24.71
2022-08-30T04:21:28.681Z,24.72
2022-08-30T04:23:59.598Z,24.74
2022-08-30T04:26:31.036Z,24.76
2022-08-30T04:29:01.893Z,24.78
2022-08-30T04:31:35.904Z,24.82
2022-08-30T04:34:12.102Z,24.83
2022-08-30T04:36:48.285Z,24.84
2022-08-30T04:39:20.184Z,24.86
2022-08-30T04:41:54.725Z,24.88
2022-08-30T04:44:28.007Z,24.88
2022-08-30T04:47:03.999Z,24.88
2022-08-30T04:49:38.889Z,24.88
2022-08-30T04:52:14.480Z,24.89
2022-08-30T04:54:47.836Z,24.91
2022-08-30T04:57:24.521Z,24.93
2022-08-30T04:59:55.320Z,24.96
2022-08-30T05:02:37.227Z,24.96
2022-08-30T05:05:27.815Z,24.96
2022-08-30T05:08:01.836Z,25.00
2022-08-30T05:10:35.582Z,25.04
2022-08-30T05:13:08.295Z,25.06
2022-08-30T05:15:39.982Z,25.06
2022-08-30T05:18:14.316Z,25.07
2022-08-30T05:20:45.589Z,25.09
2022-08-30T05:23:17.809Z,25.12
2022-08-30T05:25:48.962Z,25.14
2022-08-30T05:28:26.207Z,25.16
2022-08-30T05:30:57.260Z,25.18
2022-08-30T05:33:28.310Z,25.18
2022-08-30T05:35:59.277Z,25.24
2022-08-30T05:38:34.561Z,25.29
2022-08-30T05:41:10.950Z,25.33
2022-08-30T05:43:42.024Z,25.38
2022-08-30T05:46:20.504Z,25.44
2022-08-30T05:48:54.798Z,25.50
2022-08-30T05:51:26.628Z,25.57
2022-08-30T05:53:58.302Z,25.63
2022-08-30T05:56:31.626Z,25.69
2022-08-30T05:59:02.372Z,25.74
2022-08-30T06:01:34.479Z,25.79
2022-08-30T06:04:06.092Z,25.84
2022-08-30T06:06:38.008Z,25.89
2022-08-30T06:09:11.577Z,25.96
2022-08-30T06:11:45.519Z,26.06
2022-08-30T06:14:18.752Z,26.19
2022-08-30T06:16:53.998Z,26.31
2022-08-30T06:19:27.109Z,26.48
2022-08-30T06:21:58.891Z,26.65
2022-08-30T06:24:55.958Z,26.81
2022-08-30T06:27:25.499Z,26.96
2022-08-30T06:29:57.229Z,27.08
2022-08-30T06:32:28.349Z,27.20
2022-08-30T06:35:03.692Z,27.32
2022-08-30T06:37:36.549Z,27.43
2022-08-30T06:40:09.244Z,27.58
2022-08-30T06:42:46.194Z,27.70
2022-08-30T06:45:18.507Z,27.78
2022-08-30T06:47:50.922Z,27.89
2022-08-30T06:50:21.905Z,28.02
2022-08-30T06:52:55.867Z,28.17
2022-08-30T06:55:29.153Z,28.32
2022-08-30T06:58:01.198Z,28.43
2022-08-30T07:00:38.343Z,28.59
2022-08-30T07:03:09.524Z,28.71
2022-08-30T07:05:42.406Z,28.79
2022-08-30T07:08:15.660Z,28.86
2022-08-30T07:10:49.336Z,28.96
2022-08-30T07:13:21.282Z,29.10
2022-08-30T07:15:53.205Z,29.27
2022-08-30T07:18:46.328Z,29.43
2022-08-30T07:21:18.408Z,29.57
2022-08-30T07:23:53.585Z,29.67
2022-08-30T07:26:31.426Z,29.76
2022-08-30T07:29:04.157Z,29.83
2022-08-30T07:31:36.351Z,29.88
2022-08-30T07:34:13.497Z,29.87
2022-08-30T07:36:44.376Z,29.85
2022-08-30T07:39:19.308Z,29.85
2022-08-30T07:41:51.556Z,29.79
2022-08-30T07:44:30.098Z,29.75
2022-08-30T07:47:04.544Z,29.74
2022-08-30T07:49:35.476Z,29.70
2022-08-30T07:52:06.573Z,29.70
2022-08-30T07:54:40.088Z,29.71
2022-08-30T07:57:16.086Z,29.68
2022-08-30T07:59:47.461Z,29.68
2022-08-30T08:02:24.410Z,29.73
2022-08-30T08:04:56.641Z,29.80
2022-08-30T08:07:30.030Z,29.86
2022-08-30T08:10:03.664Z,29.90
2022-08-30T08:12:34.760Z,29.92
2022-08-30T08:15:09.009Z,29.96
2022-08-30T08:17:43.831Z,30.00
2022-08-30T08:20:14.988Z,30.05
2022-08-30T08:22:52.451Z,30.10
2022-08-30T08:25:28.270Z,30.16
2022-08-30T08:28:10.157Z,30.17
2022-08-30T08:30:48.409Z,30.22
2022-08-30T08:33:25.097Z,30.29
2022-08-30T08:36:09.455Z,30.39
2022-08-30T08:38:44.804Z,30.49
2022-08-30T08:41:24.341Z,30.58
2022-08-30T08:44:04.235Z,30.70
2022-08-30T08:46:59.527Z,30.86
2022-08-30T08:49:32.847Z,31.03
2022-08-30T08:52:22.648Z,31.19
2022-08-30T08:54:57.916Z,31.35
2022-08-30T08:57:32.940Z,31.53
2022-08-30T09:00:10.002Z,31.78
2022-08-30T09:02:42.063Z,32.08
2022-08-30T09:05:17.314Z,32.45
2022-08-30T09:07:52.900Z,32.78
2022-08-30T09:10:49.453Z,33.05
2022-08-30T09:13:23.487Z,33.34
2022-08-30T09:15:59.424Z,33.71
2022-08-30T09:18:45.666Z,34.05
2022-08-30T09:21:31.148Z,34.49
2022-08-30T09:24:12.533Z,34.77
2022-08-30T09:26:43.520Z,34.90
2022-08-30T09:29:19.628Z,35.06
2022-08-30T09:32:05.641Z,35.51
2022-08-30T09:34:48.110Z,36.09
2022-08-30T09:37:29.598Z,36.50
2022-08-30T09:40:08.719Z,36.73
2022-08-30T09:42:44.413Z,36.88
2022-08-30T09:45:21.964Z,37.02
2022-08-30T09:47:55.312Z,37.02
2022-08-30T09:50:34.125Z,37.08
2022-08-30T09:53:10.168Z,37.28
2022-08-30T09:56:01.757Z,37.77
2022-08-30T09:58:39.737Z,38.22
2022-08-30T10:01:12.701Z,38.50
2022-08-30T10:03:44.770Z,38.67
2022-08-30T10:06:18.248Z,38.95
2022-08-30T10:09:00.616Z,39.28
2022-08-30T10:11:39.081Z,39.74
2022-08-30T10:14:25.674Z,40.18
2022-08-30T10:17:01.992Z,40.55
2022-08-30T10:19:38.032Z,40.62
2022-08-30T10:25:28.521Z,40.39
2022-08-30T10:28:11.374Z,40.72
2022-08-30T10:30:45.346Z,40.88
2022-08-30T10:33:20.144Z,41.21
2022-08-30T10:35:57.167Z,41.49
2022-08-30T10:38:31.713Z,41.74
2022-08-30T10:41:14.476Z,41.85
2022-08-30T10:43:50.842Z,41.67
2022-08-30T10:46:26.851Z,41.68
2022-08-30T10:49:02.316Z,41.41
2022-08-30T10:51:41.818Z,41.31
2022-08-30T10:54:18.451Z,41.15
2022-08-30T10:56:56.859Z,40.86
2022-08-30T10:59:32.923Z,40.77
2022-08-30T11:02:09.914Z,40.77
2022-08-30T11:05:00.702Z,40.92
2022-08-30T11:07:39.073Z,41.03
2022-08-30T11:10:19.501Z,41.23
2022-08-30T11:12:55.284Z,41.23
2022-08-30T11:15:32.073Z,41.20
2022-08-30T11:18:04.796Z,41.17
2022-08-30T11:20:59.555Z,41.14
2022-08-30T11:23:35.135Z,41.17
2022-08-30T11:29:13.162Z,41.75
2022-08-30T11:31:49.593Z,42.13
2022-08-30T11:34:38.795Z,42.29
2022-08-30T11:37:12.663Z,42.34
2022-08-30T11:40:05.378Z,42.43
2022-08-30T11:45:36.314Z,42.90
2022-08-30T11:48:10.269Z,43.26
2022-08-30T11:50:48.736Z,43.54
2022-08-30T11:53:27.581Z,43.84
2022-08-30T11:56:07.023Z,43.94
2022-08-30T11:59:03.925Z,43.61
2022-08-30T12:07:52.783Z,43.61
2022-08-30T12:10:27.253Z,43.65
2022-08-30T12:12:58.826Z,43.70
2022-08-30T12:15:55.232Z,43.83
2022-08-30T12:18:38.764Z,43.89
2022-08-30T12:21:23.573Z,43.74
2022-08-30T12:24:08.284Z,43.58
2022-08-30T12:26:44.245Z,43.49
2022-08-30T12:29:22.531Z,43.36
2022-08-30T12:32:03.463Z,43.55
2022-08-30T12:34:39.100Z,43.60
2022-08-30T12:37:22.627Z,43.45
2022-08-30T12:40:06.151Z,42.84
2022-08-30T12:42:40.612Z,42.53
2022-08-30T12:45:16.277Z,42.38
2022-08-30T12:47:48.015Z,42.26
2022-08-30T12:50:21.181Z,41.87
2022-08-30T12:52:57.380Z,41.39
2022-08-30T12:55:30.368Z,41.04
2022-08-30T12:58:05.697Z,40.82
2022-08-30T13:00:45.277Z,40.49
2022-08-30T13:03:31.618Z,40.22
2022-08-30T13:06:02.852Z,39.87
2022-08-30T13:08:36.662Z,39.55
2022-08-30T13:11:09.310Z,39.28
2022-08-30T13:13:41.520Z,39.00
2022-08-30T13:16:24.956Z,38.63
2022-08-30T13:18:58.197Z,38.38
2022-08-30T13:21:31.358Z,38.22
2022-08-30T13:24:03.051Z,37.99
2022-08-30T13:26:40.683Z,37.76
2022-08-30T13:29:18.089Z,37.58
2022-08-30T13:31:53.993Z,37.48
2022-08-30T13:34:45.280Z,37.39
2022-08-30T13:40:20.060Z,37.11
2022-08-30T13:42:50.884Z,36.95
2022-08-30T13:48:24.897Z,36.75
2022-08-30T13:51:00.313Z,36.62
2022-08-30T13:56:25.026Z,36.57
2022-08-30T13:58:55.921Z,36.51
2022-08-30T14:01:28.794Z,36.42
2022-08-30T14:04:18.597Z,36.27
2022-08-30T14:09:52.828Z,36.02
2022-08-30T14:15:21.010Z,35.98
2022-08-30T14:17:51.853Z,35.94
2022-08-30T14:20:25.953Z,35.95
2022-08-30T14:23:02.867Z,35.92
2022-08-30T14:25:41.548Z,35.85
2022-08-30T14:28:13.608Z,35.92
2022-08-30T14:30:50.490Z,35.90
2022-08-30T14:33:21.539Z,35.65
2022-08-30T14:35:56.333Z,35.55
2022-08-30T14:38:27.170Z,35.48
2022-08-30T14:40:58.464Z,35.35
2022-08-30T14:43:36.650Z,35.26
2022-08-30T14:46:07.895Z,35.19
2022-08-30T14:48:47.028Z,35.07
2022-08-30T14:51:26.560Z,34.98
2022-08-30T14:53:57.453Z,34.97
2022-08-30T14:56:30.875Z,34.85
2022-08-30T14:59:03.295Z,34.73
2022-08-30T15:01:40.603Z,34.58
2022-08-30T15:04:12.059Z,34.42
2022-08-30T15:06:49.557Z,34.23
2022-08-30T15:09:23.371Z,34.12
2022-08-30T15:11:58.502Z,34.07
2022-08-30T15:14:35.024Z,34.05
2022-08-30T15:17:12.314Z,33.95
2022-08-30T15:19:44.848Z,33.87
2022-08-30T15:22:17.835Z,33.84
2022-08-30T15:24:52.297Z,33.70
2022-08-30T15:27:26.429Z,33.53
2022-08-30T15:29:57.953Z,33.38
2022-08-30T15:32:29.402Z,33.22
2022-08-30T15:35:07.911Z,33.19
2022-08-30T15:37:42.253Z,33.14
2022-08-30T15:40:14.375Z,33.11
2022-08-30T15:42:50.691Z,33.14
2022-08-30T15:45:25.213Z,33.21
2022-08-30T15:47:56.797Z,33.29
2022-08-30T15:50:35.986Z,33.36
2022-08-30T15:53:07.472Z,33.32
2022-08-30T15:55:38.735Z,33.22
2022-08-30T15:58:09.851Z,33.22
2022-08-30T16:00:44.934Z,33.25
2022-08-30T16:03:18.721Z,33.28
2022-08-30T16:05:50.963Z,33.26
2022-08-30T16:08:27.334Z,33.25
2022-08-30T16:10:58.238Z,33.30
2022-08-30T16:13:32.825Z,33.32
2022-08-30T16:16:09.677Z,33.31
2022-08-30T16:18:43.033Z,33.29
2022-08-30T16:21:17.676Z,33.26
2022-08-30T16:23:51.057Z,33.20
2022-08-30T16:26:31.041Z,33.04
2022-08-30T16:29:05.499Z,32.95
2022-08-30T16:31:38.015Z,32.85
2022-08-30T16:34:09.070Z,32.74
2022-08-30T16:36:42.637Z,32.66
2022-08-30T16:39:14.219Z,32.58
2022-08-30T16:42:00.162Z,32.52
2022-08-30T16:44:35.578Z,32.37
2022-08-30T16:47:17.743Z,32.22
2022-08-30T16:50:01.964Z,32.09
2022-08-30T16:52:35.124Z,31.99
2022-08-30T16:55:07.156Z,31.84
2022-08-30T16:57:44.257Z,31.66
2022-08-30T17:00:20.751Z,31.46
2022-08-30T17:02:54.374Z,31.38
2022-08-30T17:05:28.047Z,31.33
2022-08-30T17:08:00.329Z,31.24
2022-08-30T17:10:36.912Z,31.07
2022-08-30T17:13:10.810Z,30.80
2022-08-30T17:15:48.462Z,30.64
2022-08-30T17:18:21.747Z,30.50
2022-08-30T17:20:59.028Z,30.38
2022-08-30T17:23:29.933Z,30.34
2022-08-30T17:26:02.746Z,30.37
2022-08-30T17:28:33.678Z,30.39
2022-08-30T17:31:05.540Z,30.28
2022-08-30T17:33:40.842Z,30.24
2022-08-30T17:36:13.304Z,30.25
2022-08-30T17:38:48.531Z,30.29
2022-08-30T17:41:21.381Z,30.33
2022-08-30T17:43:59.214Z,30.34
2022-08-30T17:46:31.683Z,30.31
2022-08-30T17:49:10.582Z,30.29
2022-08-30T17:51:50.811Z,30.23
2022-08-30T17:54:26.807Z,30.15
2022-08-30T17:57:06.369Z,30.10
2022-08-30T17:59:42.288Z,29.95
2022-08-30T18:02:22.667Z,29.87
2022-08-30T18:05:05.851Z,29.84
2022-08-30T18:07:37.933Z,29.75
2022-08-30T18:10:10.269Z,29.71
2022-08-30T18:12:48.271Z,29.70
2022-08-30T18:15:21.424Z,29.72
2022-08-30T18:17:57.560Z,29.72
2022-08-30T18:20:31.314Z,29.66
2022-08-30T18:23:04.951Z,29.62
2022-08-30T18:25:38.063Z,29.61
2022-08-30T18:28:12.371Z,29.58
2022-08-30T18:30:48.329Z,29.53
2022-08-30T18:33:23.881Z,29.42
2022-08-30T18:36:02.304Z,29.35
2022-08-30T18:38:42.458Z,29.29
2022-08-30T18:41:16.913Z,29.16
2022-08-30T18:44:05.824Z,28.98
2022-08-30T18:47:31.858Z,28.94
2022-08-30T18:49:36.120Z,28.87
2022-08-30T18:52:12.086Z,28.79
2022-08-30T18:54:52.424Z,28.70
2022-08-30T18:57:24.021Z,28.59
2022-08-30T18:59:57.769Z,28.51
2022-08-30T19:02:28.485Z,28.43
2022-08-30T19:05:02.165Z,28.36
2022-08-30T19:07:37.471Z,28.26
2022-08-30T19:10:09.161Z,28.27
2022-08-30T19:12:46.136Z,28.25
2022-08-30T19:15:17.198Z,28.18
2022-08-30T19:17:50.028Z,28.12
2022-08-30T19:20:22.936Z,28.04
2022-08-30T19:23:09.961Z,27.91
2022-08-30T19:25:44.552Z,27.79
2022-08-30T19:28:17.809Z,27.72
2022-08-30T19:30:49.662Z,27.62
2022-08-30T19:33:26.794Z,27.56
2022-08-30T19:36:00.739Z,27.51
2022-08-30T19:38:34.478Z,27.46
2022-08-30T19:41:10.206Z,27.39
2022-08-30T19:43:46.361Z,27.37
2022-08-30T19:46:19.868Z,27.32
2022-08-30T19:48:55.636Z,27.25
2022-08-30T19:51:29.694Z,27.24
2022-08-30T19:54:08.419Z,27.23
2022-08-30T19:56:44.633Z,27.23
2022-08-30T19:59:21.482Z,27.24
2022-08-30T20:01:53.965Z,27.28
2022-08-30T20:04:28.093Z,27.30
2022-08-30T20:07:05.737Z,27.31
2022-08-30T20:09:42.044Z,27.29
2022-08-30T20:12:14.477Z,27.29
2022-08-30T20:14:47.175Z,27.28
2022-08-30T20:17:23.530Z,27.30
2022-08-30T20:19:57.030Z,27.34
2022-08-30T20:22:29.502Z,27.37
2022-08-30T20:25:03.464Z,27.38
2022-08-30T20:27:35.480Z,27.38
2022-08-30T20:30:07.251Z,27.38
2022-08-30T20:32:41.143Z,27.36
2022-08-30T20:35:13.629Z,27.35
2022-08-30T20:37:49.408Z,27.38
2022-08-30T20:40:28.971Z,27.41
2022-08-30T20:43:02.952Z,27.39
2022-08-30T20:45:36.401Z,27.43
2022-08-30T20:48:07.484Z,27.49
2022-08-30T20:50:44.670Z,27.56
2022-08-30T20:53:22.678Z,27.63
2022-08-30T20:55:53.406Z,27.65
2022-08-30T20:58:27.551Z,27.62
2022-08-30T21:01:02.331Z,27.61
2022-08-30T21:03:35.808Z,27.57
2022-08-30T21:06:07.776Z,27.47
2022-08-30T21:08:43.094Z,27.31
2022-08-30T21:11:15.554Z,27.25
2022-08-30T21:13:49.342Z,27.23
2022-08-30T21:16:27.685Z,27.19
2022-08-30T21:19:08.222Z,27.12
2022-08-30T21:21:39.440Z,27.05
2022-08-30T21:24:15.726Z,27.01
2022-08-30T21:26:46.924Z,26.95
2022-08-30T21:29:18.012Z,26.88
2022-08-30T21:31:55.450Z,26.79
2022-08-30T21:34:27.547Z,26.73
2022-08-30T21:36:59.007Z,26.68
2022-08-30T21:39:32.489Z,26.61
2022-08-30T21:42:06.849Z,26.56
2022-08-30T21:44:42.067Z,26.54
2022-08-30T21:47:13.029Z,26.51
2022-08-30T21:49:54.378Z,26.48
2022-08-30T21:52:32.271Z,26.46
2022-08-30T21:55:03.837Z,26.44
2022-08-30T21:57:35.176Z,26.42
2022-08-30T22:00:10.942Z,26.41
2022-08-30T22:02:42.954Z,26.35
2022-08-30T22:05:14.086Z,26.33
2022-08-30T22:07:47.556Z,26.34
2022-08-30T22:10:21.406Z,26.33
2022-08-30T22:12:54.424Z,26.34
2022-08-30T22:15:34.507Z,26.36
2022-08-30T22:18:05.788Z,26.38
2022-08-30T22:20:40.948Z,26.39
2022-08-30T22:23:18.862Z,26.36
2022-08-30T22:25:51.311Z,26.33
2022-08-30T22:28:24.756Z,26.30
2022-08-30T22:31:02.130Z,26.28
2022-08-30T22:33:33.301Z,26.24
2022-08-30T22:36:07.655Z,26.18
2022-08-30T22:38:41.739Z,26.16
2022-08-30T22:41:25.644Z,26.13
2022-08-30T22:44:08.132Z,26.09
2022-08-30T22:46:39.146Z,26.06
2022-08-30T22:49:13.247Z,26.02
2022-08-30T22:51:47.212Z,25.99
2022-08-30T22:54:24.950Z,25.97
2022-08-30T22:56:58.298Z,25.94
2022-08-30T22:59:31.525Z,25.90
2022-08-30T23:02:03.901Z,25.85
2022-08-30T23:04:35.161Z,25.82
2022-08-30T23:07:07.422Z,25.78
2022-08-30T23:09:40.961Z,25.73
2022-08-30T23:12:16.433Z,25.69
2022-08-30T23:14:51.010Z,25.63
2022-08-30T23:17:25.295Z,25.60
2022-08-30T23:20:02.786Z,25.59
2022-08-30T23:22:41.558Z,25.59
2022-08-30T23:25:32.027Z,25.59
2022-08-30T23:28:29.428Z,25.61
2022-08-30T23:31:19.340Z,25.60
2022-08-30T23:34:07.847Z,25.61
2022-08-30T23:37:01.388Z,25.66
2022-08-30T23:39:49.503Z,25.72
2022-08-30T23:42:37.650Z,25.78
2022-08-30T23:45:27.860Z,25.81
2022-08-30T23:48:16.648Z,25.80
2022-08-30T23:51:04.703Z,25.80
2022-08-30T23:53:58.943Z,25.77
2022-08-30T23:56:49.552Z,25.79
2022-08-30T23:59:37.883Z,25.77
